createdAt,value
2023-03-26T00:28:46.383Z,9.71
2023-03-26T00:57:10.852Z,9.67
2023-03-26T01:27:11.914Z,9.69
2023-03-26T02:24:30.805Z,9.69
2023-03-26T02:53:18.287Z,9.46
2023-03-26T03:22:08.604Z,9.46
2023-03-26T03:51:07.719Z,9.53
2023-03-26T04:20:07.936Z,9.39
2023-03-26T05:17:52.050Z,9.63
2023-03-26T05:46:15.774Z,9.96
2023-03-26T06:44:28.577Z,10.21
2023-03-26T07:17:39.119Z,10.23
2023-03-26T08:14:59.251Z,9.88
2023-03-26T08:43:43.886Z,9.75
2023-03-26T09:11:50.286Z,9.75
2023-03-26T09:40:53.379Z,10.25
2023-03-26T10:09:27.941Z,11.47
2023-03-26T10:37:52.876Z,12.61
2023-03-26T11:06:13.935Z,13.67
2023-03-26T11:34:39.440Z,13.42
2023-03-26T12:03:32.561Z,14.33
2023-03-26T12:32:08.508Z,13.56
2023-03-26T13:00:43.948Z,12.19
2023-03-26T13:29:17.096Z,12.11
2023-03-26T13:57:54.784Z,10.13
2023-03-26T14:26:35.080Z,8.51
2023-03-26T14:55:29.242Z,9.6
2023-03-26T15:23:52.913Z,9.38
2023-03-26T15:52:28.954Z,9.02
2023-03-26T16:21:30.391Z,9.28
2023-03-26T16:49:36.377Z,9.24
2023-03-26T17:18:12.816Z,8.85
2023-03-26T17:46:41.123Z,8.43
2023-03-26T18:15:26.108Z,8.48
2023-03-26T18:44:16.455Z,8.34
2023-03-26T19:12:43.921Z,8.33
2023-03-26T19:41:29.576Z,8.2
2023-03-26T20:09:56.817Z,8.11
2023-03-26T20:38:47.514Z,8.16
2023-03-26T21:07:24.238Z,8.02
2023-03-26T21:36:14.576Z,7.93
2023-03-26T22:04:57.997Z,7.81
2023-03-26T22:33:29.298Z,7.7
2023-03-26T23:02:23.105Z,7.6
2023-03-26T23:31:24.157Z,7.43
